createdAt,value
2018-03-27T00:00:04.218Z,90.36
2018-03-27T00:01:09.989Z,90.24
2018-03-27T00:02:16.104Z,90.47
2018-03-27T00:03:23.264Z,90.26
2018-03-27T00:04:29.725Z,90.26
2018-03-27T00:05:35.955Z,90.10
2018-03-27T00:06:46.688Z,90.11
2018-03-27T00:07:52.992Z,89.83
2018-03-27T00:08:59.186Z,89.70
2018-03-27T00:10:04.811Z,89.50
2018-03-27T00:11:10.745Z,89.53
2018-03-27T00:12:17.169Z,89.09
2018-03-27T00:13:23.446Z,89.06
2018-03-27T00:14:29.650Z,89.23
2018-03-27T00:15:35.850Z,89.34
2018-03-27T00:16:44.611Z,89.34
2018-03-27T00:17:54.348Z,89.40
2018-03-27T00:19:02.494Z,89.99
2018-03-27T00:20:09.814Z,90.31
2018-03-27T00:21:16.035Z,90.60
2018-03-27T00:22:22.243Z,90.40
2018-03-27T00:23:28.485Z,90.59
2018-03-27T00:24:41.938Z,90.67
2018-03-27T00:25:47.938Z,90.92
2018-03-27T00:27:01.073Z,90.78
2018-03-27T00:28:18.208Z,90.73
2018-03-27T00:29:41.268Z,90.46
2018-03-27T00:31:10.226Z,90.53
2018-03-27T00:32:33.280Z,91.20
2018-03-27T00:33:56.268Z,91.37
2018-03-27T00:35:19.339Z,91.03
2018-03-27T00:36:42.391Z,91.24
2018-03-27T00:38:05.544Z,91.51
2018-03-27T00:39:28.470Z,91.39
2018-03-27T00:40:43.048Z,91.31
2018-03-27T00:53:50.767Z,91.08
2018-03-27T00:54:57.054Z,90.92
2018-03-27T00:56:03.973Z,90.87
2018-03-27T00:57:10.257Z,90.87
2018-03-27T00:58:16.509Z,90.69
2018-03-27T00:59:22.838Z,90.35
2018-03-27T01:00:29.176Z,90.43
2018-03-27T01:01:34.394Z,90.21
2018-03-27T01:02:40.682Z,90.49
2018-03-27T01:03:46.874Z,91.31
2018-03-27T01:04:53.128Z,91.47
2018-03-27T01:06:00.502Z,91.24
2018-03-27T01:07:06.899Z,90.88
2018-03-27T01:08:13.132Z,90.76
2018-03-27T01:09:20.327Z,90.95
2018-03-27T01:10:28.553Z,90.27
2018-03-27T01:11:34.827Z,90.76
2018-03-27T01:12:41.011Z,90.64
2018-03-27T01:13:47.243Z,90.92
2018-03-27T01:14:59.128Z,90.61
2018-03-27T01:16:05.324Z,90.23
2018-03-27T01:17:11.567Z,89.91
2018-03-27T01:18:17.798Z,90.77
2018-03-27T01:19:24.092Z,90.88
2018-03-27T01:20:34.129Z,90.55
2018-03-27T01:21:46.527Z,90.29
2018-03-27T01:22:52.800Z,90.30
2018-03-27T01:23:59.085Z,90.11
2018-03-27T01:25:05.380Z,90.63
2018-03-27T01:26:11.759Z,91.12
2018-03-27T01:27:18.012Z,90.69
2018-03-27T01:28:24.310Z,90.42
2018-03-27T01:29:30.520Z,90.74
2018-03-27T01:30:36.742Z,91.01
2018-03-27T01:31:43.041Z,91.17
2018-03-27T01:32:49.777Z,91.06
2018-03-27T01:33:58.040Z,90.99
2018-03-27T01:35:03.914Z,91.40
2018-03-27T01:36:11.225Z,91.65
2018-03-27T01:37:19.724Z,91.57
2018-03-27T01:38:25.952Z,91.42
2018-03-27T01:39:32.266Z,91.22
2018-03-27T01:40:43.754Z,91.13
2018-03-27T01:41:49.965Z,91.38
2018-03-27T01:42:56.311Z,91.54
2018-03-27T01:44:02.526Z,91.53
2018-03-27T01:45:08.817Z,91.48
2018-03-27T01:46:15.059Z,91.16
2018-03-27T01:47:21.320Z,91.18
2018-03-27T01:48:28.423Z,91.01
2018-03-27T01:49:34.673Z,91.30
2018-03-27T01:50:41.036Z,91.40
2018-03-27T01:51:47.261Z,91.28
2018-03-27T01:52:53.521Z,91.31
2018-03-27T01:53:59.744Z,91.23
2018-03-27T01:55:14.481Z,91.42
2018-03-27T01:56:30.266Z,91.94
2018-03-27T01:57:36.504Z,92.13
2018-03-27T01:58:42.704Z,92.00
2018-03-27T01:59:48.959Z,92.06
2018-03-27T02:00:55.199Z,91.94
2018-03-27T02:02:03.360Z,91.87
2018-03-27T02:03:09.721Z,92.12
2018-03-27T02:04:15.925Z,92.00
2018-03-27T02:05:22.156Z,92.64
2018-03-27T02:06:31.304Z,92.65
2018-03-27T02:07:37.508Z,92.72
2018-03-27T02:08:43.744Z,92.70
2018-03-27T02:09:52.778Z,92.81
2018-03-27T02:11:04.425Z,92.71
2018-03-27T02:12:16.083Z,92.66
2018-03-27T02:13:29.720Z,93.04
2018-03-27T02:14:41.476Z,93.33
2018-03-27T02:15:53.080Z,93.21
2018-03-27T02:17:04.917Z,92.78
2018-03-27T02:18:16.653Z,92.62
2018-03-27T02:19:28.205Z,92.38
2018-03-27T02:20:45.114Z,92.11
2018-03-27T02:21:52.543Z,92.37
2018-03-27T02:22:59.604Z,92.28
2018-03-27T02:24:07.074Z,91.50
2018-03-27T02:25:13.274Z,91.38
2018-03-27T02:26:19.529Z,91.34
2018-03-27T02:27:26.075Z,91.08
2018-03-27T02:28:32.690Z,90.92
2018-03-27T02:29:38.873Z,90.93
2018-03-27T02:30:45.150Z,90.67
2018-03-27T02:31:51.406Z,90.95
2018-03-27T02:32:57.697Z,91.13
2018-03-27T02:34:04.038Z,91.25
2018-03-27T02:35:10.249Z,91.19
2018-03-27T02:36:16.600Z,90.86
2018-03-27T02:37:22.797Z,90.64
2018-03-27T02:38:29.061Z,90.36
2018-03-27T02:39:40.153Z,90.10
2018-03-27T02:40:46.381Z,90.73
2018-03-27T02:41:52.602Z,90.98
2018-03-27T02:42:58.588Z,91.00
2018-03-27T02:44:04.901Z,91.02
2018-03-27T02:45:11.472Z,91.21
2018-03-27T02:46:17.459Z,91.07
2018-03-27T02:47:26.573Z,91.24
2018-03-27T02:48:34.420Z,91.42
2018-03-27T02:49:40.680Z,91.12
2018-03-27T02:50:54.106Z,91.58
2018-03-27T02:52:01.926Z,91.60
2018-03-27T02:53:13.171Z,91.99
2018-03-27T02:54:23.691Z,92.22
2018-03-27T02:55:29.935Z,92.01
2018-03-27T02:56:36.201Z,91.95
2018-03-27T02:57:42.210Z,92.17
2018-03-27T02:58:48.224Z,92.67
2018-03-27T02:59:54.510Z,92.67
2018-03-27T03:01:05.848Z,92.90
2018-03-27T03:02:15.829Z,93.32
2018-03-27T03:03:22.425Z,93.34
2018-03-27T03:04:28.445Z,93.14
2018-03-27T03:05:36.733Z,92.95
2018-03-27T03:06:42.837Z,92.79
2018-03-27T03:07:54.293Z,92.80
2018-03-27T03:09:03.252Z,92.59
2018-03-27T03:10:09.666Z,92.50
2018-03-27T03:11:16.004Z,92.64
2018-03-27T03:12:22.229Z,92.56
2018-03-27T03:13:32.444Z,92.56
2018-03-27T03:14:38.632Z,92.48
2018-03-27T03:15:44.829Z,92.79
2018-03-27T03:16:52.192Z,93.04
2018-03-27T03:17:58.436Z,93.28
2018-03-27T03:19:04.770Z,93.42
2018-03-27T03:20:11.255Z,93.26
2018-03-27T03:21:20.528Z,93.70
2018-03-27T03:22:27.745Z,93.25
2018-03-27T03:23:34.240Z,92.95
2018-03-27T03:24:40.520Z,92.91
2018-03-27T03:25:46.761Z,93.42
2018-03-27T03:26:53.008Z,93.27
2018-03-27T03:27:59.202Z,92.79
2018-03-27T03:29:06.384Z,92.83
2018-03-27T03:30:12.643Z,92.99
2018-03-27T03:31:18.824Z,93.21
2018-03-27T03:32:25.025Z,93.97
2018-03-27T03:33:33.526Z,93.85
2018-03-27T03:34:39.724Z,93.59
2018-03-27T03:35:46.991Z,93.37
2018-03-27T03:36:53.587Z,93.22
2018-03-27T03:37:59.815Z,93.42
2018-03-27T03:39:11.357Z,93.33
2018-03-27T03:40:17.635Z,94.04
2018-03-27T03:41:23.956Z,94.31
2018-03-27T03:42:30.180Z,94.40
2018-03-27T03:43:36.433Z,94.18
2018-03-27T03:44:42.679Z,94.16
2018-03-27T03:45:48.883Z,94.35
2018-03-27T03:46:55.139Z,94.20
2018-03-27T03:48:01.386Z,93.93
2018-03-27T03:49:07.841Z,93.88
2018-03-27T03:50:14.186Z,94.01
2018-03-27T03:51:20.432Z,94.12
2018-03-27T03:52:26.634Z,94.16
2018-03-27T03:53:34.737Z,93.84
2018-03-27T03:54:42.298Z,94.38
2018-03-27T03:55:51.407Z,94.18
2018-03-27T03:57:03.633Z,94.27
2018-03-27T03:58:10.160Z,94.11
2018-03-27T03:59:16.393Z,94.32
2018-03-27T04:00:26.731Z,94.22
2018-03-27T04:01:33.129Z,94.02
2018-03-27T04:02:45.496Z,94.23
2018-03-27T04:03:51.910Z,94.21
2018-03-27T04:04:58.233Z,94.27
2018-03-27T04:06:04.517Z,94.24
2018-03-27T04:07:10.820Z,94.05
2018-03-27T04:08:17.318Z,94.08
2018-03-27T04:09:30.365Z,93.77
2018-03-27T04:10:36.702Z,93.66
2018-03-27T04:11:48.801Z,93.31
2018-03-27T04:12:55.085Z,93.43
2018-03-27T04:14:05.429Z,93.57
2018-03-27T04:15:12.275Z,93.99
2018-03-27T04:16:18.599Z,93.72
2018-03-27T04:17:28.164Z,93.90
2018-03-27T04:18:34.387Z,94.08
2018-03-27T04:19:40.618Z,93.96
2018-03-27T04:20:46.793Z,93.87
2018-03-27T04:21:53.104Z,93.77
2018-03-27T04:22:59.695Z,93.79
2018-03-27T04:24:05.907Z,93.82
2018-03-27T04:25:12.657Z,93.72
2018-03-27T04:26:19.878Z,93.74
2018-03-27T04:27:26.211Z,93.83
2018-03-27T04:28:32.571Z,93.58
2018-03-27T04:29:38.768Z,93.55
2018-03-27T04:30:47.125Z,93.08
2018-03-27T04:31:53.352Z,93.06
2018-03-27T04:32:59.785Z,92.62
2018-03-27T04:34:06.021Z,92.37
2018-03-27T04:35:12.277Z,92.33
2018-03-27T04:36:18.485Z,92.50
2018-03-27T04:37:24.687Z,92.98
2018-03-27T04:38:30.973Z,93.56
2018-03-27T04:39:37.181Z,93.60
2018-03-27T04:40:43.486Z,93.55
2018-03-27T04:41:53.517Z,93.82
2018-03-27T04:42:59.749Z,94.38
2018-03-27T04:44:08.482Z,94.10
2018-03-27T04:45:14.717Z,93.96
2018-03-27T04:46:20.900Z,94.21
2018-03-27T04:47:29.133Z,94.32
2018-03-27T04:48:35.341Z,94.24
2018-03-27T04:49:41.597Z,94.38
2018-03-27T04:50:47.805Z,94.56
2018-03-27T04:51:54.078Z,94.40
2018-03-27T04:53:00.217Z,94.47
2018-03-27T04:54:12.565Z,94.55
2018-03-27T04:55:18.827Z,94.68
2018-03-27T04:56:25.996Z,94.87
2018-03-27T04:57:32.261Z,94.68
2018-03-27T04:58:38.717Z,94.94
2018-03-27T04:59:44.932Z,94.68
2018-03-27T05:00:51.224Z,94.28
2018-03-27T05:01:57.480Z,93.88
2018-03-27T05:03:03.689Z,93.78
2018-03-27T05:04:09.951Z,93.75
2018-03-27T05:05:16.148Z,93.62
2018-03-27T05:06:22.389Z,93.10
2018-03-27T05:07:28.588Z,93.15
2018-03-27T05:08:37.794Z,93.25
2018-03-27T05:09:46.130Z,93.40
2018-03-27T05:10:52.381Z,92.98
2018-03-27T05:11:58.758Z,92.86
2018-03-27T05:13:05.066Z,93.04
2018-03-27T05:14:11.265Z,93.08
2018-03-27T05:15:18.468Z,92.86
2018-03-27T05:16:25.426Z,92.66
2018-03-27T05:17:37.043Z,92.38
2018-03-27T05:18:50.726Z,92.80
2018-03-27T05:19:57.002Z,93.06
2018-03-27T05:21:03.360Z,93.43
2018-03-27T05:22:10.964Z,93.83
2018-03-27T05:23:17.322Z,94.27
2018-03-27T05:24:28.757Z,94.29
2018-03-27T05:25:36.116Z,94.24
2018-03-27T05:26:43.327Z,94.27
2018-03-27T05:27:49.625Z,94.54
2018-03-27T05:28:56.248Z,94.39
2018-03-27T05:30:04.129Z,94.71
2018-03-27T05:31:20.182Z,94.72
2018-03-27T05:32:31.424Z,94.53
2018-03-27T05:33:37.664Z,94.38
2018-03-27T05:34:43.899Z,94.23
2018-03-27T05:35:52.119Z,93.90
2018-03-27T05:36:58.494Z,93.91
2018-03-27T05:38:07.713Z,93.54
2018-03-27T05:39:15.104Z,93.86
2018-03-27T05:40:21.380Z,93.97
2018-03-27T05:41:27.649Z,94.13
2018-03-27T05:42:33.912Z,94.19
2018-03-27T05:43:40.189Z,93.75
2018-03-27T05:44:46.448Z,93.45
2018-03-27T05:45:52.687Z,92.79
2018-03-27T05:46:58.918Z,92.87
2018-03-27T05:48:08.207Z,93.77
2018-03-27T05:49:17.046Z,93.75
2018-03-27T05:50:23.765Z,93.81
2018-03-27T05:51:31.579Z,93.63
2018-03-27T05:52:40.698Z,93.46
2018-03-27T05:53:47.009Z,93.46
2018-03-27T05:54:52.969Z,93.12
2018-03-27T05:55:59.354Z,92.95
2018-03-27T05:57:05.728Z,92.86
2018-03-27T05:58:11.950Z,93.17
2018-03-27T05:59:18.223Z,93.19
2018-03-27T06:00:28.291Z,92.75
2018-03-27T06:01:34.526Z,92.07
2018-03-27T06:02:40.787Z,91.74
2018-03-27T06:03:47.039Z,91.30
2018-03-27T06:04:56.243Z,91.12
2018-03-27T06:06:02.569Z,91.08
2018-03-27T06:07:08.936Z,91.10
2018-03-27T06:08:15.223Z,91.07
2018-03-27T06:09:21.473Z,90.90
2018-03-27T06:10:27.796Z,90.50
2018-03-27T06:11:34.082Z,90.77
2018-03-27T06:12:40.326Z,90.87
2018-03-27T06:13:46.602Z,90.74
2018-03-27T06:14:52.881Z,91.11
2018-03-27T06:15:59.073Z,91.22
2018-03-27T06:17:05.330Z,90.59
2018-03-27T06:18:12.342Z,90.22
2018-03-27T06:19:18.682Z,90.50
2018-03-27T06:20:26.058Z,90.60
2018-03-27T06:21:32.729Z,90.36
2018-03-27T06:22:39.017Z,89.81
2018-03-27T06:23:46.093Z,89.48
2018-03-27T06:24:53.382Z,88.94
2018-03-27T06:25:59.622Z,88.27
2018-03-27T06:27:05.847Z,88.82
2018-03-27T06:28:12.127Z,88.55
2018-03-27T06:29:18.400Z,88.05
2018-03-27T06:30:24.454Z,88.98
2018-03-27T06:31:31.748Z,89.15
2018-03-27T06:32:41.991Z,89.47
2018-03-27T06:33:51.270Z,89.33
2018-03-27T06:34:57.575Z,88.93
2018-03-27T06:36:05.212Z,88.27
2018-03-27T06:37:12.930Z,87.98
2018-03-27T06:38:21.387Z,87.81
2018-03-27T06:39:32.376Z,87.53
2018-03-27T06:40:43.746Z,87.07
2018-03-27T06:41:50.278Z,86.68
2018-03-27T06:42:56.687Z,85.98
2018-03-27T06:44:07.143Z,85.31
2018-03-27T06:45:13.486Z,84.99
2018-03-27T06:46:23.797Z,84.29
2018-03-27T06:47:31.067Z,83.63
2018-03-27T06:48:37.577Z,83.01
2018-03-27T06:49:43.943Z,82.36
2018-03-27T06:50:50.250Z,82.36
2018-03-27T06:51:57.091Z,82.76
2018-03-27T06:53:03.356Z,82.88
2018-03-27T06:54:09.623Z,82.44
2018-03-27T06:55:15.871Z,81.83
2018-03-27T06:56:22.250Z,81.39
2018-03-27T06:57:28.921Z,81.02
2018-03-27T06:58:35.305Z,80.89
2018-03-27T06:59:41.883Z,80.36
2018-03-27T07:00:48.206Z,80.32
2018-03-27T07:01:54.404Z,79.92
2018-03-27T07:03:05.911Z,80.16
2018-03-27T07:04:15.931Z,79.44
2018-03-27T07:05:22.244Z,79.52
2018-03-27T07:06:29.569Z,79.17
2018-03-27T07:07:35.755Z,78.98
2018-03-27T07:08:42.260Z,78.49
2018-03-27T07:09:48.894Z,77.84
2018-03-27T07:10:55.252Z,78.24
2018-03-27T07:12:06.306Z,78.78
2018-03-27T07:13:12.795Z,78.17
2018-03-27T07:14:19.562Z,78.03
2018-03-27T07:15:26.072Z,77.84
2018-03-27T07:16:32.307Z,77.82
2018-03-27T07:17:40.581Z,77.76
2018-03-27T07:18:47.150Z,79.18
2018-03-27T07:19:53.518Z,78.92
2018-03-27T07:20:59.865Z,79.22
2018-03-27T07:22:06.117Z,79.58
2018-03-27T07:23:12.418Z,79.95
2018-03-27T07:24:23.474Z,79.52
2018-03-27T07:25:37.364Z,79.45
2018-03-27T07:26:44.298Z,79.44
2018-03-27T07:27:55.466Z,78.70
2018-03-27T07:29:02.432Z,78.18
2018-03-27T07:30:09.133Z,77.44
2018-03-27T07:31:15.384Z,77.04
2018-03-27T07:32:21.604Z,75.55
2018-03-27T07:33:27.857Z,75.58
2018-03-27T07:34:34.292Z,75.14
2018-03-27T07:35:40.781Z,74.96
2018-03-27T07:36:47.129Z,74.74
2018-03-27T07:38:00.241Z,74.76
2018-03-27T07:39:07.492Z,74.92
2018-03-27T07:40:14.714Z,74.82
2018-03-27T07:41:20.950Z,75.33
2018-03-27T07:42:27.372Z,75.50
2018-03-27T07:43:33.702Z,75.53
2018-03-27T07:44:39.976Z,75.42
2018-03-27T07:45:46.216Z,75.97
2018-03-27T07:46:52.878Z,75.91
2018-03-27T07:47:59.286Z,75.71
2018-03-27T07:49:05.530Z,76.10
2018-03-27T07:50:11.759Z,76.39
2018-03-27T07:51:17.972Z,75.90
2018-03-27T07:52:26.190Z,75.37
2018-03-27T07:53:32.587Z,76.13
2018-03-27T07:54:41.741Z,76.83
2018-03-27T07:55:49.862Z,77.38
2018-03-27T07:56:56.062Z,77.85
2018-03-27T07:58:02.300Z,77.34
2018-03-27T07:59:08.544Z,76.52
2018-03-27T08:00:14.800Z,75.79
2018-03-27T08:01:21.028Z,75.06
2018-03-27T08:02:27.284Z,74.19
2018-03-27T08:03:33.613Z,73.50
2018-03-27T08:04:44.936Z,72.62
2018-03-27T08:05:57.139Z,74.31
2018-03-27T08:07:04.108Z,74.18
2018-03-27T08:08:10.336Z,74.46
2018-03-27T08:09:16.532Z,75.00
2018-03-27T08:10:23.113Z,75.05
2018-03-27T08:11:29.314Z,75.68
2018-03-27T08:12:35.536Z,75.64
2018-03-27T08:13:41.767Z,75.40
2018-03-27T08:14:47.996Z,76.58
2018-03-27T08:15:54.231Z,76.13
2018-03-27T08:17:00.471Z,75.00
2018-03-27T08:18:06.677Z,75.28
2018-03-27T08:19:12.599Z,74.85
2018-03-27T08:20:22.996Z,74.65
2018-03-27T08:21:29.217Z,76.87
2018-03-27T08:22:39.479Z,77.52
2018-03-27T08:23:46.081Z,77.88
2018-03-27T08:24:52.376Z,78.27
2018-03-27T08:26:04.712Z,78.60
2018-03-27T08:27:13.166Z,77.68
2018-03-27T08:28:19.429Z,76.57
2018-03-27T08:29:25.733Z,75.59
2018-03-27T08:30:32.041Z,77.14
2018-03-27T08:31:38.188Z,76.10
2018-03-27T08:32:44.188Z,76.58
2018-03-27T08:33:50.537Z,75.86
2018-03-27T08:34:56.784Z,73.66
2018-03-27T08:36:03.227Z,74.84
2018-03-27T08:37:09.455Z,74.93
2018-03-27T08:38:15.697Z,73.37
2018-03-27T08:39:21.910Z,72.27
2018-03-27T08:40:28.419Z,71.90
2018-03-27T08:41:34.703Z,71.69
2018-03-27T08:42:47.652Z,70.93
2018-03-27T08:43:58.820Z,72.15
2018-03-27T08:45:05.023Z,72.96
2018-03-27T08:46:10.554Z,74.37
2018-03-27T08:47:22.345Z,76.00
2018-03-27T08:48:29.572Z,76.95
2018-03-27T08:49:40.373Z,76.29
2018-03-27T08:50:48.341Z,76.52
2018-03-27T08:51:54.349Z,75.90
2018-03-27T08:53:00.572Z,75.09
2018-03-27T08:54:06.978Z,74.15
2018-03-27T08:55:13.783Z,75.00
2018-03-27T08:56:20.094Z,75.46
2018-03-27T08:57:26.329Z,76.08
2018-03-27T08:58:32.667Z,76.51
2018-03-27T08:59:40.829Z,75.81
2018-03-27T09:00:47.115Z,75.69
2018-03-27T09:01:53.385Z,74.86
2018-03-27T09:03:00.675Z,73.86
2018-03-27T09:04:06.995Z,73.71
2018-03-27T09:05:13.474Z,73.61
2018-03-27T09:06:19.883Z,73.20
2018-03-27T09:07:26.333Z,72.95
2018-03-27T09:08:32.675Z,72.74
2018-03-27T09:09:38.941Z,72.59
2018-03-27T09:10:45.204Z,72.43
2018-03-27T09:11:51.471Z,72.14
2018-03-27T09:12:57.705Z,71.76
2018-03-27T09:14:08.961Z,70.34
2018-03-27T09:15:15.284Z,69.72
2018-03-27T09:16:22.713Z,69.50
2018-03-27T09:17:29.064Z,69.16
2018-03-27T09:18:35.124Z,68.18
2018-03-27T09:19:41.398Z,66.78
2018-03-27T09:20:48.039Z,66.38
2018-03-27T09:21:53.995Z,66.17
2018-03-27T09:23:00.249Z,65.94
2018-03-27T09:24:06.521Z,66.11
2018-03-27T09:25:12.586Z,67.59
2018-03-27T09:26:19.517Z,68.70
2018-03-27T09:27:25.558Z,69.32
2018-03-27T09:28:31.870Z,70.12
2018-03-27T09:29:42.266Z,68.65
2018-03-27T09:30:53.690Z,68.78
2018-03-27T09:31:59.988Z,68.55
2018-03-27T09:33:06.573Z,68.36
2018-03-27T09:34:12.710Z,68.75
2018-03-27T09:35:18.979Z,68.90
2018-03-27T09:36:24.901Z,68.51
2018-03-27T09:37:31.193Z,67.85
2018-03-27T09:38:37.565Z,66.91
2018-03-27T09:39:43.886Z,66.06
2018-03-27T09:40:52.115Z,65.32
2018-03-27T09:41:58.060Z,65.71
2018-03-27T09:43:04.539Z,66.04
2018-03-27T09:44:13.590Z,66.61
2018-03-27T09:45:19.950Z,66.48
2018-03-27T09:46:26.237Z,65.64
2018-03-27T09:47:32.505Z,65.19
2018-03-27T09:48:38.730Z,64.25
2018-03-27T09:49:45.340Z,64.37
2018-03-27T09:50:51.703Z,64.35
2018-03-27T09:51:58.173Z,63.80
2018-03-27T09:53:04.501Z,65.04
2018-03-27T09:54:11.044Z,64.69
2018-03-27T09:55:17.442Z,64.01
2018-03-27T09:56:29.514Z,64.79
2018-03-27T09:57:36.527Z,63.67
2018-03-27T09:58:46.205Z,63.09
2018-03-27T09:59:52.658Z,63.41
2018-03-27T10:00:58.822Z,65.01
2018-03-27T10:12:56.343Z,62.31
2018-03-27T10:14:02.627Z,62.05
2018-03-27T10:15:08.927Z,61.46
2018-03-27T10:16:15.227Z,62.80
2018-03-27T10:17:21.610Z,63.27
2018-03-27T10:18:27.940Z,62.81
2018-03-27T10:19:34.276Z,61.98
2018-03-27T10:20:40.540Z,63.24
2018-03-27T10:21:46.824Z,62.97
2018-03-27T10:22:56.039Z,62.01
2018-03-27T10:24:02.372Z,61.26
2018-03-27T10:25:08.693Z,60.72
2018-03-27T10:26:15.141Z,60.57
2018-03-27T10:27:23.562Z,60.65
2018-03-27T10:28:29.844Z,60.90
2018-03-27T10:29:36.202Z,60.28
2018-03-27T10:30:42.427Z,60.85
2018-03-27T10:31:48.672Z,62.10
2018-03-27T10:32:54.923Z,62.73
2018-03-27T10:34:01.212Z,62.47
2018-03-27T10:35:07.479Z,61.62
2018-03-27T10:36:13.794Z,61.13
2018-03-27T10:37:20.044Z,62.62
2018-03-27T10:38:26.435Z,62.53
2018-03-27T10:39:32.745Z,61.62
2018-03-27T10:40:41.532Z,61.13
2018-03-27T10:41:47.830Z,60.52
2018-03-27T10:42:54.151Z,60.70
2018-03-27T10:44:00.768Z,60.40
2018-03-27T10:45:07.125Z,59.70
2018-03-27T10:46:18.001Z,59.59
2018-03-27T10:47:28.103Z,59.45
2018-03-27T10:48:34.441Z,60.59
2018-03-27T10:49:40.660Z,60.86
2018-03-27T10:50:51.578Z,60.79
2018-03-27T10:51:58.714Z,60.54
2018-03-27T10:53:10.533Z,60.84
2018-03-27T10:54:19.993Z,60.85
2018-03-27T10:55:26.303Z,61.15
2018-03-27T10:56:32.572Z,60.80
2018-03-27T10:57:38.944Z,60.62
2018-03-27T10:58:45.212Z,59.39
2018-03-27T10:59:51.322Z,59.12
2018-03-27T11:00:58.707Z,59.37
2018-03-27T11:02:05.179Z,59.15
2018-03-27T11:03:12.463Z,59.00
2018-03-27T11:04:18.818Z,59.75
2018-03-27T11:05:25.087Z,59.18
2018-03-27T11:06:31.121Z,59.65
2018-03-27T11:07:37.400Z,59.63
2018-03-27T11:08:43.963Z,58.83
2018-03-27T11:09:50.269Z,58.26
2018-03-27T11:11:01.569Z,56.96
2018-03-27T11:12:07.826Z,56.06
2018-03-27T11:13:14.125Z,55.94
2018-03-27T11:14:20.381Z,56.15
2018-03-27T11:15:26.688Z,56.27
2018-03-27T11:16:32.957Z,57.68
2018-03-27T11:17:39.262Z,55.52
2018-03-27T11:18:45.617Z,56.64
2018-03-27T11:19:51.941Z,57.43
2018-03-27T11:20:58.390Z,57.14
2018-03-27T11:22:07.526Z,56.68
2018-03-27T11:23:13.888Z,56.82
2018-03-27T11:24:20.388Z,56.97
2018-03-27T11:25:26.736Z,57.42
2018-03-27T11:26:33.005Z,57.85
2018-03-27T11:27:43.669Z,58.88
2018-03-27T11:28:52.941Z,58.16
2018-03-27T11:29:59.455Z,55.64
2018-03-27T11:31:05.375Z,55.88
2018-03-27T11:32:16.586Z,55.64
2018-03-27T11:33:23.786Z,55.33
2018-03-27T11:34:35.000Z,56.01
2018-03-27T11:35:41.401Z,54.86
2018-03-27T11:36:48.066Z,56.27
2018-03-27T11:37:54.385Z,55.79
2018-03-27T11:39:00.673Z,55.71
2018-03-27T11:40:08.468Z,55.18
2018-03-27T11:41:14.741Z,54.06
2018-03-27T11:42:20.816Z,53.96
2018-03-27T11:43:27.117Z,52.95
2018-03-27T11:44:42.667Z,53.78
2018-03-27T11:45:49.252Z,54.58
2018-03-27T11:46:55.632Z,54.67
2018-03-27T11:48:07.042Z,53.87
2018-03-27T11:49:16.331Z,53.72
2018-03-27T11:50:22.608Z,54.50
2018-03-27T11:51:28.864Z,54.04
2018-03-27T11:52:35.662Z,53.64
2018-03-27T11:53:41.830Z,52.49
2018-03-27T11:54:48.013Z,53.76
2018-03-27T11:55:54.273Z,54.58
2018-03-27T11:57:03.938Z,52.72
2018-03-27T11:58:09.985Z,53.54
2018-03-27T11:59:19.260Z,54.06
2018-03-27T12:00:25.588Z,54.29
2018-03-27T12:01:33.760Z,54.28
2018-03-27T12:02:40.177Z,53.56
2018-03-27T12:03:47.794Z,54.56
2018-03-27T12:04:54.095Z,55.24
2018-03-27T12:06:00.091Z,54.56
2018-03-27T12:07:06.382Z,54.58
2018-03-27T12:08:12.730Z,55.73
2018-03-27T12:09:19.020Z,55.68
2018-03-27T12:10:25.339Z,55.07
2018-03-27T12:11:31.675Z,54.92
2018-03-27T12:12:38.300Z,55.00
2018-03-27T12:13:44.565Z,54.81
2018-03-27T12:14:50.891Z,54.45
2018-03-27T12:15:58.208Z,54.63
2018-03-27T12:17:04.570Z,55.04
2018-03-27T12:18:10.995Z,54.47
2018-03-27T12:19:17.290Z,54.12
2018-03-27T12:20:23.588Z,55.29
2018-03-27T12:21:36.055Z,54.02
2018-03-27T12:22:42.339Z,54.40
2018-03-27T12:23:48.634Z,53.69
2018-03-27T12:24:54.997Z,52.77
2018-03-27T12:26:04.054Z,53.83
2018-03-27T12:27:10.287Z,53.45
2018-03-27T12:28:16.626Z,53.27
2018-03-27T12:29:22.942Z,54.78
2018-03-27T12:30:29.983Z,54.17
2018-03-27T12:31:36.385Z,54.32
2018-03-27T12:32:42.749Z,54.62
2018-03-27T12:33:50.893Z,54.66
2018-03-27T12:34:56.970Z,54.82
2018-03-27T12:36:03.299Z,54.72
2018-03-27T12:37:09.333Z,54.67
2018-03-27T12:38:19.904Z,54.84
2018-03-27T12:39:26.338Z,54.87
2018-03-27T12:40:40.140Z,54.41
2018-03-27T12:41:46.534Z,54.54
2018-03-27T12:42:55.838Z,54.00
2018-03-27T12:44:02.157Z,53.09
2018-03-27T12:45:08.492Z,52.31
2018-03-27T12:46:14.762Z,52.14
2018-03-27T12:47:21.076Z,53.29
2018-03-27T12:48:27.425Z,53.88
2018-03-27T12:49:33.736Z,53.39
2018-03-27T12:50:40.001Z,53.74
2018-03-27T12:51:46.301Z,53.28
2018-03-27T12:52:52.616Z,53.86
2018-03-27T12:53:58.887Z,54.05
2018-03-27T12:55:08.133Z,54.16
2018-03-27T12:56:15.473Z,53.18
2018-03-27T12:57:27.730Z,54.06
2018-03-27T12:58:36.578Z,53.57
2018-03-27T12:59:42.923Z,53.18
2018-03-27T13:00:49.544Z,53.02
2018-03-27T13:01:55.620Z,53.32
2018-03-27T13:03:01.931Z,52.96
2018-03-27T13:04:08.242Z,53.94
2018-03-27T13:05:14.642Z,53.94
2018-03-27T13:06:21.168Z,52.31
2018-03-27T13:07:32.314Z,52.13
2018-03-27T13:08:38.722Z,51.72
2018-03-27T13:09:45.058Z,51.33
2018-03-27T13:10:52.226Z,51.40
2018-03-27T13:11:58.503Z,51.47
2018-03-27T13:13:04.830Z,51.33
2018-03-27T13:14:11.310Z,51.11
2018-03-27T13:15:17.855Z,50.84
2018-03-27T13:16:24.190Z,51.18
2018-03-27T13:17:30.485Z,51.25
2018-03-27T13:18:36.847Z,51.97
2018-03-27T13:19:43.176Z,51.86
2018-03-27T13:20:49.439Z,51.59
2018-03-27T13:21:56.761Z,51.77
2018-03-27T13:23:02.748Z,52.45
2018-03-27T13:24:11.052Z,52.76
2018-03-27T13:25:17.558Z,53.59
2018-03-27T13:26:24.275Z,54.34
2018-03-27T13:27:30.571Z,53.78
2018-03-27T13:28:37.135Z,53.92
2018-03-27T13:29:43.382Z,53.54
2018-03-27T13:30:49.729Z,53.75
2018-03-27T13:31:56.022Z,53.82
2018-03-27T13:33:02.286Z,54.17
2018-03-27T13:34:08.575Z,53.82
2018-03-27T13:35:14.954Z,53.76
2018-03-27T13:36:21.761Z,53.85
2018-03-27T13:37:28.340Z,53.02
2018-03-27T13:38:34.660Z,53.78
2018-03-27T13:39:40.989Z,52.81
2018-03-27T13:40:47.278Z,52.20
2018-03-27T13:41:53.561Z,52.60
2018-03-27T13:42:59.863Z,52.39
2018-03-27T13:44:11.132Z,52.59
2018-03-27T13:45:17.744Z,52.73
2018-03-27T13:46:24.073Z,52.11
2018-03-27T13:47:30.390Z,52.08
2018-03-27T13:48:36.766Z,52.16
2018-03-27T13:49:43.130Z,52.06
2018-03-27T13:50:49.499Z,51.30
2018-03-27T13:51:58.264Z,51.39
2018-03-27T13:53:07.536Z,51.92
2018-03-27T13:54:14.048Z,51.16
2018-03-27T13:55:20.371Z,51.47
2018-03-27T13:56:26.657Z,51.13
2018-03-27T13:57:33.045Z,50.51
2018-03-27T13:58:39.353Z,50.78
2018-03-27T13:59:45.696Z,50.97
2018-03-27T14:00:52.026Z,52.22
2018-03-27T14:01:58.320Z,51.96
2018-03-27T14:03:04.601Z,52.74
2018-03-27T14:04:11.260Z,52.25
2018-03-27T14:05:17.572Z,52.57
2018-03-27T14:06:23.880Z,52.21
2018-03-27T14:07:30.178Z,52.52
2018-03-27T14:08:36.507Z,52.79
2018-03-27T14:09:42.800Z,52.97
2018-03-27T14:10:49.045Z,53.13
2018-03-27T14:11:56.010Z,52.98
2018-03-27T14:13:02.908Z,52.99
2018-03-27T14:14:09.165Z,53.35
2018-03-27T14:15:16.067Z,53.68
2018-03-27T14:16:22.699Z,53.63
2018-03-27T14:17:28.971Z,53.62
2018-03-27T14:18:35.832Z,53.69
2018-03-27T14:19:42.178Z,53.62
2018-03-27T14:20:48.537Z,53.48
2018-03-27T14:21:54.884Z,53.34
2018-03-27T14:23:03.851Z,53.06
2018-03-27T14:24:11.132Z,53.16
2018-03-27T14:25:17.460Z,52.42
2018-03-27T14:26:23.830Z,53.21
2018-03-27T14:27:30.405Z,53.54
2018-03-27T14:28:36.887Z,52.60
2018-03-27T14:29:43.202Z,52.06
2018-03-27T14:30:49.564Z,52.42
2018-03-27T14:31:55.598Z,53.07
2018-03-27T14:33:01.885Z,52.88
2018-03-27T14:34:07.838Z,52.93
2018-03-27T14:35:17.858Z,53.26
2018-03-27T14:36:23.428Z,53.37
2018-03-27T14:37:29.690Z,53.39
2018-03-27T14:38:36.012Z,53.12
2018-03-27T14:39:42.624Z,53.61
2018-03-27T14:40:54.262Z,52.80
2018-03-27T14:42:05.610Z,53.09
2018-03-27T14:43:11.935Z,53.10
2018-03-27T14:44:18.755Z,53.06
2018-03-27T14:45:31.003Z,53.40
2018-03-27T14:46:37.478Z,52.17
2018-03-27T14:47:49.263Z,52.95
2018-03-27T14:48:55.533Z,52.86
2018-03-27T14:50:01.826Z,53.09